sensor_id;sensor_type;location;lat;lon;timestamp;temperature;humidity
11569;DHT22;5840;46.894;15.542;2022-10-16T00:00:47;11.70;99.90
11569;DHT22;5840;46.894;15.542;2022-10-16T00:03:14;11.70;99.90
11569;DHT22;5840;46.894;15.542;2022-10-16T00:05:42;11.60;99.90
11569;DHT22;5840;46.894;15.542;2022-10-16T00:08:11;11.60;99.90
11569;DHT22;5840;46.894;15.542;2022-10-16T00:10:39;11.50;99.90
11569;DHT22;5840;46.894;15.542;2022-10-16T00:13:06;11.50;99.90
11569;DHT22;5840;46.894;15.542;2022-10-16T00:15:33;11.40;99.90
11569;DHT22;5840;46.894;15.542;2022-10-16T00:18:03;11.40;99.90
11569;DHT22;5840;46.894;15.542;2022-10-16T00:20:33;11.40;99.90
11569;DHT22;5840;46.894;15.542;2022-10-16T00:23:00;11.40;99.90
11569;DHT22;5840;46.894;15.542;2022-10-16T00:25:28;11.30;99.90
11569;DHT22;5840;46.894;15.542;2022-10-16T00:27:58;11.30;99.90
11569;DHT22;5840;46.894;15.542;2022-10-16T00:30:25;11.30;99.90
11569;DHT22;5840;46.894;15.542;2022-10-16T00:32:53;11.30;99.90
11569;DHT22;5840;46.894;15.542;2022-10-16T00:35:20;11.30;99.90
11569;DHT22;5840;46.894;15.542;2022-10-16T00:37:47;11.30;99.90
11569;DHT22;5840;46.894;15.542;2022-10-16T00:40:14;11.30;99.90
11569;DHT22;5840;46.894;15.542;2022-10-16T00:42:42;11.40;99.90
11569;DHT22;5840;46.894;15.542;2022-10-16T00:45:10;11.40;99.90
11569;DHT22;5840;46.894;15.542;2022-10-16T00:47:39;11.30;99.90
11569;DHT22;5840;46.894;15.542;2022-10-16T00:50:09;11.30;99.90
11569;DHT22;5840;46.894;15.542;2022-10-16T00:52:40;11.40;99.90
11569;DHT22;5840;46.894;15.542;2022-10-16T00:55:09;11.40;99.90
11569;DHT22;5840;46.894;15.542;2022-10-16T00:57:36;11.40;99.90
11569;DHT22;5840;46.894;15.542;2022-10-16T01:00:07;11.40;99.90
11569;DHT22;5840;46.894;15.542;2022-10-16T01:02:35;11.40;99.90
11569;DHT22;5840;46.894;15.542;2022-10-16T01:05:02;11.40;99.90
11569;DHT22;5840;46.894;15.542;2022-10-16T01:07:36;11.30;99.90
11569;DHT22;5840;46.894;15.542;2022-10-16T01:10:17;11.40;99.90
11569;DHT22;5840;46.894;15.542;2022-10-16T01:12:51;11.40;99.90
11569;DHT22;5840;46.894;15.542;2022-10-16T01:15:26;11.40;99.90
11569;DHT22;5840;46.894;15.542;2022-10-16T01:17:59;11.40;99.90
11569;DHT22;5840;46.894;15.542;2022-10-16T01:20:30;11.40;99.90
11569;DHT22;5840;46.894;15.542;2022-10-16T01:23:15;11.40;99.90
11569;DHT22;5840;46.894;15.542;2022-10-16T01:25:59;11.40;99.90
11569;DHT22;5840;46.894;15.542;2022-10-16T01:28:38;11.40;99.90
11569;DHT22;5840;46.894;15.542;2022-10-16T01:31:06;11.40;99.90
11569;DHT22;5840;46.894;15.542;2022-10-16T01:33:41;11.40;99.90
11569;DHT22;5840;46.894;15.542;2022-10-16T01:36:12;11.40;99.90
11569;DHT22;5840;46.894;15.542;2022-10-16T01:38:40;11.40;99.90
11569;DHT22;5840;46.894;15.542;2022-10-16T01:41:09;11.40;99.90
11569;DHT22;5840;46.894;15.542;2022-10-16T01:43:41;11.40;99.90
11569;DHT22;5840;46.894;15.542;2022-10-16T01:46:09;11.40;99.90
11569;DHT22;5840;46.894;15.542;2022-10-16T01:48:38;11.40;99.90
11569;DHT22;5840;46.894;15.542;2022-10-16T01:51:08;11.30;99.90
11569;DHT22;5840;46.894;15.542;2022-10-16T01:53:37;11.20;99.90
11569;DHT22;5840;46.894;15.542;2022-10-16T01:56:07;11.20;99.90
11569;DHT22;5840;46.894;15.542;2022-10-16T01:58:39;11.20;99.90
11569;DHT22;5840;46.894;15.542;2022-10-16T02:01:09;11.20;99.90
11569;DHT22;5840;46.894;15.542;2022-10-16T02:03:38;11.20;99.90
11569;DHT22;5840;46.894;15.542;2022-10-16T02:06:07;11.20;99.90
11569;DHT22;5840;46.894;15.542;2022-10-16T02:08:35;11.20;99.90
11569;DHT22;5840;46.894;15.542;2022-10-16T02:11:02;11.20;99.90
11569;DHT22;5840;46.894;15.542;2022-10-16T02:13:32;11.20;99.90
11569;DHT22;5840;46.894;15.542;2022-10-16T02:16:01;11.20;99.90
11569;DHT22;5840;46.894;15.542;2022-10-16T02:18:29;11.20;99.90
11569;DHT22;5840;46.894;15.542;2022-10-16T02:20:59;11.20;99.90
11569;DHT22;5840;46.894;15.542;2022-10-16T02:23:33;11.20;99.90
11569;DHT22;5840;46.894;15.542;2022-10-16T02:26:04;11.20;99.90
11569;DHT22;5840;46.894;15.542;2022-10-16T02:28:37;11.20;99.90
11569;DHT22;5840;46.894;15.542;2022-10-16T02:31:10;11.20;99.90
11569;DHT22;5840;46.894;15.542;2022-10-16T02:33:40;11.20;99.90
11569;DHT22;5840;46.894;15.542;2022-10-16T02:36:08;11.20;99.90
11569;DHT22;5840;46.894;15.542;2022-10-16T02:38:36;11.20;99.90
11569;DHT22;5840;46.894;15.542;2022-10-16T02:41:04;11.20;99.90
11569;DHT22;5840;46.894;15.542;2022-10-16T02:43:31;11.20;99.90
11569;DHT22;5840;46.894;15.542;2022-10-16T02:45:59;11.20;99.90
11569;DHT22;5840;46.894;15.542;2022-10-16T02:48:27;11.20;99.90
11569;DHT22;5840;46.894;15.542;2022-10-16T02:50:54;11.20;99.90
11569;DHT22;5840;46.894;15.542;2022-10-16T02:53:22;11.20;99.90
11569;DHT22;5840;46.894;15.542;2022-10-16T02:55:49;11.20;99.90
11569;DHT22;5840;46.894;15.542;2022-10-16T02:58:16;11.30;99.90
11569;DHT22;5840;46.894;15.542;2022-10-16T03:00:43;11.30;99.90
11569;DHT22;5840;46.894;15.542;2022-10-16T03:03:10;11.30;99.90
11569;DHT22;5840;46.894;15.542;2022-10-16T03:05:38;11.30;99.90
11569;DHT22;5840;46.894;15.542;2022-10-16T03:08:05;11.30;99.90
11569;DHT22;5840;46.894;15.542;2022-10-16T03:10:32;11.30;99.90
11569;DHT22;5840;46.894;15.542;2022-10-16T03:12:59;11.30;99.90
11569;DHT22;5840;46.894;15.542;2022-10-16T03:15:26;11.30;99.90
11569;DHT22;5840;46.894;15.542;2022-10-16T03:17:53;11.30;99.90
11569;DHT22;5840;46.894;15.542;2022-10-16T03:20:21;11.30;99.90
11569;DHT22;5840;46.894;15.542;2022-10-16T03:22:49;11.30;99.90
11569;DHT22;5840;46.894;15.542;2022-10-16T03:25:16;11.30;99.90
11569;DHT22;5840;46.894;15.542;2022-10-16T03:27:43;11.30;99.90
11569;DHT22;5840;46.894;15.542;2022-10-16T03:30:10;11.30;99.90
11569;DHT22;5840;46.894;15.542;2022-10-16T03:32:37;11.30;99.90
11569;DHT22;5840;46.894;15.542;2022-10-16T03:35:05;11.30;99.90
11569;DHT22;5840;46.894;15.542;2022-10-16T03:37:32;11.20;99.90
11569;DHT22;5840;46.894;15.542;2022-10-16T03:40:00;11.20;99.90
11569;DHT22;5840;46.894;15.542;2022-10-16T03:42:27;11.20;99.90
11569;DHT22;5840;46.894;15.542;2022-10-16T03:44:54;11.20;99.90
11569;DHT22;5840;46.894;15.542;2022-10-16T03:47:21;11.10;99.90
11569;DHT22;5840;46.894;15.542;2022-10-16T03:49:49;11.10;99.90
11569;DHT22;5840;46.894;15.542;2022-10-16T03:52:16;11.10;99.90
11569;DHT22;5840;46.894;15.542;2022-10-16T03:54:43;11.10;99.90
11569;DHT22;5840;46.894;15.542;2022-10-16T03:57:11;11.10;99.90
11569;DHT22;5840;46.894;15.542;2022-10-16T03:59:38;11.00;99.90
11569;DHT22;5840;46.894;15.542;2022-10-16T04:02:05;11.00;99.90
11569;DHT22;5840;46.894;15.542;2022-10-16T04:04:33;11.00;99.90
11569;DHT22;5840;46.894;15.542;2022-10-16T04:07:00;11.00;99.90
11569;DHT22;5840;46.894;15.542;2022-10-16T04:09:28;10.90;99.90
11569;DHT22;5840;46.894;15.542;2022-10-16T04:11:55;10.90;99.90
11569;DHT22;5840;46.894;15.542;2022-10-16T04:14:23;10.90;99.90
11569;DHT22;5840;46.894;15.542;2022-10-16T04:16:50;10.90;99.90
11569;DHT22;5840;46.894;15.542;2022-10-16T04:19:17;10.80;99.90
11569;DHT22;5840;46.894;15.542;2022-10-16T04:21:44;10.80;99.90
11569;DHT22;5840;46.894;15.542;2022-10-16T04:24:11;10.70;99.90
11569;DHT22;5840;46.894;15.542;2022-10-16T04:26:38;10.70;99.90
11569;DHT22;5840;46.894;15.542;2022-10-16T04:29:05;10.60;99.90
11569;DHT22;5840;46.894;15.542;2022-10-16T04:31:34;10.70;99.90
11569;DHT22;5840;46.894;15.542;2022-10-16T04:34:01;10.70;99.90
11569;DHT22;5840;46.894;15.542;2022-10-16T04:36:27;10.70;99.90
11569;DHT22;5840;46.894;15.542;2022-10-16T04:38:54;10.70;99.90
11569;DHT22;5840;46.894;15.542;2022-10-16T04:41:21;10.60;99.90
11569;DHT22;5840;46.894;15.542;2022-10-16T04:43:48;10.60;99.90
11569;DHT22;5840;46.894;15.542;2022-10-16T04:46:15;10.60;99.90
11569;DHT22;5840;46.894;15.542;2022-10-16T04:48:43;10.50;99.90
11569;DHT22;5840;46.894;15.542;2022-10-16T04:51:10;10.50;99.90
11569;DHT22;5840;46.894;15.542;2022-10-16T04:53:37;10.50;99.90
11569;DHT22;5840;46.894;15.542;2022-10-16T04:56:04;10.50;99.90
11569;DHT22;5840;46.894;15.542;2022-10-16T04:58:31;10.50;99.90
11569;DHT22;5840;46.894;15.542;2022-10-16T05:00:58;10.50;99.90
11569;DHT22;5840;46.894;15.542;2022-10-16T05:03:25;10.40;99.90
11569;DHT22;5840;46.894;15.542;2022-10-16T05:05:53;10.40;99.90
11569;DHT22;5840;46.894;15.542;2022-10-16T05:08:20;10.40;99.90
11569;DHT22;5840;46.894;15.542;2022-10-16T05:10:47;10.40;99.90
11569;DHT22;5840;46.894;15.542;2022-10-16T05:13:14;10.40;99.90
11569;DHT22;5840;46.894;15.542;2022-10-16T05:15:41;10.40;99.90
11569;DHT22;5840;46.894;15.542;2022-10-16T05:18:08;10.40;99.90
11569;DHT22;5840;46.894;15.542;2022-10-16T05:20:35;10.40;99.90
11569;DHT22;5840;46.894;15.542;2022-10-16T05:23:04;10.40;99.90
11569;DHT22;5840;46.894;15.542;2022-10-16T05:25:31;10.40;99.90
11569;DHT22;5840;46.894;15.542;2022-10-16T05:27:57;10.40;99.90
11569;DHT22;5840;46.894;15.542;2022-10-16T05:30:24;10.40;99.90
11569;DHT22;5840;46.894;15.542;2022-10-16T05:32:51;10.40;99.90
11569;DHT22;5840;46.894;15.542;2022-10-16T05:35:19;10.40;99.90
11569;DHT22;5840;46.894;15.542;2022-10-16T05:37:46;10.40;99.90
11569;DHT22;5840;46.894;15.542;2022-10-16T05:40:15;10.30;99.90
11569;DHT22;5840;46.894;15.542;2022-10-16T05:42:42;10.40;99.90
11569;DHT22;5840;46.894;15.542;2022-10-16T05:45:10;10.40;99.90
11569;DHT22;5840;46.894;15.542;2022-10-16T05:47:38;10.40;99.90
11569;DHT22;5840;46.894;15.542;2022-10-16T05:50:05;10.40;99.90
11569;DHT22;5840;46.894;15.542;2022-10-16T05:52:32;10.50;99.90
11569;DHT22;5840;46.894;15.542;2022-10-16T05:54:59;10.50;99.90
11569;DHT22;5840;46.894;15.542;2022-10-16T05:57:27;10.50;99.90
11569;DHT22;5840;46.894;15.542;2022-10-16T05:59:54;10.60;99.90
11569;DHT22;5840;46.894;15.542;2022-10-16T06:02:21;10.60;99.90
11569;DHT22;5840;46.894;15.542;2022-10-16T06:04:48;10.60;99.90
11569;DHT22;5840;46.894;15.542;2022-10-16T06:07:15;10.70;99.90
11569;DHT22;5840;46.894;15.542;2022-10-16T06:09:42;10.70;99.90
11569;DHT22;5840;46.894;15.542;2022-10-16T06:12:09;10.80;99.90
11569;DHT22;5840;46.894;15.542;2022-10-16T06:14:37;10.80;99.90
11569;DHT22;5840;46.894;15.542;2022-10-16T06:17:04;10.80;99.90
11569;DHT22;5840;46.894;15.542;2022-10-16T06:19:31;10.90;99.90
11569;DHT22;5840;46.894;15.542;2022-10-16T06:21:58;10.90;99.90
11569;DHT22;5840;46.894;15.542;2022-10-16T06:24:25;10.80;99.90
11569;DHT22;5840;46.894;15.542;2022-10-16T06:26:52;10.90;99.90
11569;DHT22;5840;46.894;15.542;2022-10-16T06:29:19;10.90;99.90
11569;DHT22;5840;46.894;15.542;2022-10-16T06:31:48;10.80;99.90
11569;DHT22;5840;46.894;15.542;2022-10-16T06:34:14;10.80;99.90
11569;DHT22;5840;46.894;15.542;2022-10-16T06:36:41;10.80;99.90
11569;DHT22;5840;46.894;15.542;2022-10-16T06:39:09;10.80;99.90
11569;DHT22;5840;46.894;15.542;2022-10-16T06:41:36;10.90;99.90
11569;DHT22;5840;46.894;15.542;2022-10-16T06:44:05;11.10;99.90
11569;DHT22;5840;46.894;15.542;2022-10-16T06:46:33;11.20;99.90
11569;DHT22;5840;46.894;15.542;2022-10-16T06:49:01;11.40;99.90
11569;DHT22;5840;46.894;15.542;2022-10-16T06:51:28;11.50;99.90
11569;DHT22;5840;46.894;15.542;2022-10-16T06:53:57;11.70;99.90
11569;DHT22;5840;46.894;15.542;2022-10-16T06:56:26;12.00;99.90
11569;DHT22;5840;46.894;15.542;2022-10-16T06:58:54;12.40;99.90
11569;DHT22;5840;46.894;15.542;2022-10-16T07:01:22;12.70;99.90
11569;DHT22;5840;46.894;15.542;2022-10-16T07:03:50;13.00;99.90
11569;DHT22;5840;46.894;15.542;2022-10-16T07:06:20;13.30;99.90
11569;DHT22;5840;46.894;15.542;2022-10-16T07:08:48;13.60;99.90
11569;DHT22;5840;46.894;15.542;2022-10-16T07:11:17;13.90;99.90
11569;DHT22;5840;46.894;15.542;2022-10-16T07:13:45;14.20;99.90
11569;DHT22;5840;46.894;15.542;2022-10-16T07:16:14;14.40;99.90
11569;DHT22;5840;46.894;15.542;2022-10-16T07:18:42;14.80;99.90
11569;DHT22;5840;46.894;15.542;2022-10-16T07:21:13;15.10;99.90
11569;DHT22;5840;46.894;15.542;2022-10-16T07:23:41;15.30;99.90
11569;DHT22;5840;46.894;15.542;2022-10-16T07:26:09;15.50;99.90
11569;DHT22;5840;46.894;15.542;2022-10-16T07:28:36;15.70;99.90
11569;DHT22;5840;46.894;15.542;2022-10-16T07:31:06;15.90;99.90
11569;DHT22;5840;46.894;15.542;2022-10-16T07:33:34;16.10;99.90
11569;DHT22;5840;46.894;15.542;2022-10-16T07:36:01;16.30;99.90
11569;DHT22;5840;46.894;15.542;2022-10-16T07:38:28;16.50;99.90
11569;DHT22;5840;46.894;15.542;2022-10-16T07:41:01;16.70;99.90
11569;DHT22;5840;46.894;15.542;2022-10-16T07:43:29;16.90;99.90
11569;DHT22;5840;46.894;15.542;2022-10-16T07:45:56;17.00;99.90
11569;DHT22;5840;46.894;15.542;2022-10-16T07:48:24;17.20;99.90
11569;DHT22;5840;46.894;15.542;2022-10-16T07:50:56;17.40;99.90
11569;DHT22;5840;46.894;15.542;2022-10-16T07:53:23;17.60;99.90
11569;DHT22;5840;46.894;15.542;2022-10-16T07:55:50;17.70;99.90
11569;DHT22;5840;46.894;15.542;2022-10-16T07:58:18;17.80;99.90
11569;DHT22;5840;46.894;15.542;2022-10-16T08:00:45;18.00;99.90
11569;DHT22;5840;46.894;15.542;2022-10-16T08:03:12;18.10;99.90
11569;DHT22;5840;46.894;15.542;2022-10-16T08:05:39;18.30;99.90
11569;DHT22;5840;46.894;15.542;2022-10-16T08:08:06;18.50;99.90
11569;DHT22;5840;46.894;15.542;2022-10-16T08:10:33;18.70;99.90
11569;DHT22;5840;46.894;15.542;2022-10-16T08:13:00;18.80;99.90
11569;DHT22;5840;46.894;15.542;2022-10-16T08:15:28;18.90;99.90
11569;DHT22;5840;46.894;15.542;2022-10-16T08:17:59;19.10;99.90
11569;DHT22;5840;46.894;15.542;2022-10-16T08:20:28;19.30;99.90
11569;DHT22;5840;46.894;15.542;2022-10-16T08:22:55;19.30;99.90
11569;DHT22;5840;46.894;15.542;2022-10-16T08:25:23;19.60;99.90
11569;DHT22;5840;46.894;15.542;2022-10-16T08:27:50;19.90;99.90
11569;DHT22;5840;46.894;15.542;2022-10-16T08:30:18;20.10;99.90
11569;DHT22;5840;46.894;15.542;2022-10-16T08:32:47;20.30;99.90
11569;DHT22;5840;46.894;15.542;2022-10-16T08:35:14;20.50;99.90
11569;DHT22;5840;46.894;15.542;2022-10-16T08:37:42;20.60;99.90
11569;DHT22;5840;46.894;15.542;2022-10-16T08:40:17;20.80;99.90
11569;DHT22;5840;46.894;15.542;2022-10-16T08:43:01;20.90;99.90
11569;DHT22;5840;46.894;15.542;2022-10-16T08:45:44;21.00;99.90
11569;DHT22;5840;46.894;15.542;2022-10-16T08:48:22;21.10;99.90
11569;DHT22;5840;46.894;15.542;2022-10-16T08:50:51;21.20;99.90
11569;DHT22;5840;46.894;15.542;2022-10-16T08:53:22;21.30;99.90
11569;DHT22;5840;46.894;15.542;2022-10-16T08:55:51;21.30;99.90
11569;DHT22;5840;46.894;15.542;2022-10-16T08:58:20;21.40;99.90
11569;DHT22;5840;46.894;15.542;2022-10-16T09:00:49;21.30;99.90
11569;DHT22;5840;46.894;15.542;2022-10-16T09:03:29;21.50;99.90
11569;DHT22;5840;46.894;15.542;2022-10-16T09:06:09;21.60;99.90
11569;DHT22;5840;46.894;15.542;2022-10-16T09:08:44;21.70;99.90
11569;DHT22;5840;46.894;15.542;2022-10-16T09:11:20;21.70;99.90
11569;DHT22;5840;46.894;15.542;2022-10-16T09:13:59;21.80;99.90
11569;DHT22;5840;46.894;15.542;2022-10-16T09:16:34;21.70;99.90
11569;DHT22;5840;46.894;15.542;2022-10-16T09:19:13;22.00;99.90
11569;DHT22;5840;46.894;15.542;2022-10-16T09:21:43;21.90;99.90
11569;DHT22;5840;46.894;15.542;2022-10-16T09:24:14;22.00;99.90
11569;DHT22;5840;46.894;15.542;2022-10-16T09:26:41;22.20;99.90
11569;DHT22;5840;46.894;15.542;2022-10-16T09:29:10;22.20;99.90
11569;DHT22;5840;46.894;15.542;2022-10-16T09:31:38;22.40;99.90
11569;DHT22;5840;46.894;15.542;2022-10-16T09:34:09;22.40;99.90
11569;DHT22;5840;46.894;15.542;2022-10-16T09:36:41;22.40;99.90
11569;DHT22;5840;46.894;15.542;2022-10-16T09:39:09;22.50;99.90
11569;DHT22;5840;46.894;15.542;2022-10-16T09:41:38;22.50;99.90
11569;DHT22;5840;46.894;15.542;2022-10-16T09:44:17;22.40;99.90
11569;DHT22;5840;46.894;15.542;2022-10-16T09:46:46;22.60;99.90
11569;DHT22;5840;46.894;15.542;2022-10-16T09:49:22;22.60;99.90
11569;DHT22;5840;46.894;15.542;2022-10-16T09:51:50;22.60;99.90
11569;DHT22;5840;46.894;15.542;2022-10-16T09:54:18;22.60;99.90
11569;DHT22;5840;46.894;15.542;2022-10-16T09:56:46;22.70;99.90
11569;DHT22;5840;46.894;15.542;2022-10-16T09:59:18;22.70;99.90
11569;DHT22;5840;46.894;15.542;2022-10-16T10:01:47;22.80;99.90
11569;DHT22;5840;46.894;15.542;2022-10-16T10:04:14;22.80;99.90
11569;DHT22;5840;46.894;15.542;2022-10-16T10:06:45;22.90;99.90
11569;DHT22;5840;46.894;15.542;2022-10-16T10:09:18;23.00;99.90
11569;DHT22;5840;46.894;15.542;2022-10-16T10:11:51;23.00;99.90
11569;DHT22;5840;46.894;15.542;2022-10-16T10:14:21;23.00;99.90
11569;DHT22;5840;46.894;15.542;2022-10-16T10:16:50;23.00;99.90
11569;DHT22;5840;46.894;15.542;2022-10-16T10:19:18;23.20;99.90
11569;DHT22;5840;46.894;15.542;2022-10-16T10:21:47;23.20;99.90
11569;DHT22;5840;46.894;15.542;2022-10-16T10:24:16;23.20;99.90
11569;DHT22;5840;46.894;15.542;2022-10-16T10:26:49;23.20;99.90
11569;DHT22;5840;46.894;15.542;2022-10-16T10:29:31;23.20;99.90
11569;DHT22;5840;46.894;15.542;2022-10-16T10:32:13;23.40;99.90
11569;DHT22;5840;46.894;15.542;2022-10-16T10:34:53;23.40;99.40
11569;DHT22;5840;46.894;15.542;2022-10-16T10:37:34;23.40;99.40
11569;DHT22;5840;46.894;15.542;2022-10-16T10:40:11;23.60;99.00
11569;DHT22;5840;46.894;15.542;2022-10-16T10:42:45;23.50;99.10
11569;DHT22;5840;46.894;15.542;2022-10-16T10:45:26;23.60;99.30
11569;DHT22;5840;46.894;15.542;2022-10-16T10:48:03;23.70;98.10
11569;DHT22;5840;46.894;15.542;2022-10-16T10:50:39;23.90;99.60
11569;DHT22;5840;46.894;15.542;2022-10-16T10:53:21;24.10;98.40
11569;DHT22;5840;46.894;15.542;2022-10-16T10:55:55;24.10;96.20
11569;DHT22;5840;46.894;15.542;2022-10-16T10:58:48;24.10;97.50
11569;DHT22;5840;46.894;15.542;2022-10-16T11:01:20;24.10;96.40
11569;DHT22;5840;46.894;15.542;2022-10-16T11:04:09;24.20;98.30
11569;DHT22;5840;46.894;15.542;2022-10-16T11:06:42;24.20;96.40
11569;DHT22;5840;46.894;15.542;2022-10-16T11:09:15;24.10;95.40
11569;DHT22;5840;46.894;15.542;2022-10-16T11:11:48;24.20;95.30
11569;DHT22;5840;46.894;15.542;2022-10-16T11:14:19;24.20;95.20
11569;DHT22;5840;46.894;15.542;2022-10-16T11:16:51;24.10;96.00
11569;DHT22;5840;46.894;15.542;2022-10-16T11:19:26;24.20;95.30
11569;DHT22;5840;46.894;15.542;2022-10-16T11:22:01;24.30;94.80
11569;DHT22;5840;46.894;15.542;2022-10-16T11:24:40;24.50;95.00
11569;DHT22;5840;46.894;15.542;2022-10-16T11:27:14;24.50;96.40
11569;DHT22;5840;46.894;15.542;2022-10-16T11:29:46;24.50;96.20
11569;DHT22;5840;46.894;15.542;2022-10-16T11:32:20;24.60;95.90
11569;DHT22;5840;46.894;15.542;2022-10-16T11:34:51;24.70;94.00
11569;DHT22;5840;46.894;15.542;2022-10-16T11:37:21;24.60;93.40
11569;DHT22;5840;46.894;15.542;2022-10-16T11:39:52;24.50;94.40
11569;DHT22;5840;46.894;15.542;2022-10-16T11:42:26;24.50;93.90
11569;DHT22;5840;46.894;15.542;2022-10-16T11:44:59;24.50;95.40
11569;DHT22;5840;46.894;15.542;2022-10-16T11:47:34;24.60;95.50
11569;DHT22;5840;46.894;15.542;2022-10-16T11:50:04;24.40;95.50
11569;DHT22;5840;46.894;15.542;2022-10-16T11:52:40;24.50;95.90
11569;DHT22;5840;46.894;15.542;2022-10-16T11:55:16;24.50;94.60
11569;DHT22;5840;46.894;15.542;2022-10-16T11:57:46;24.40;95.40
11569;DHT22;5840;46.894;15.542;2022-10-16T12:00:21;24.40;94.50
11569;DHT22;5840;46.894;15.542;2022-10-16T12:02:57;24.10;96.00
11569;DHT22;5840;46.894;15.542;2022-10-16T12:05:30;24.10;93.90
11569;DHT22;5840;46.894;15.542;2022-10-16T12:08:06;24.10;94.80
11569;DHT22;5840;46.894;15.542;2022-10-16T12:10:39;23.90;94.10
11569;DHT22;5840;46.894;15.542;2022-10-16T12:13:31;23.90;94.60
11569;DHT22;5840;46.894;15.542;2022-10-16T12:16:06;23.80;94.80
11569;DHT22;5840;46.894;15.542;2022-10-16T12:18:33;23.80;93.50
11569;DHT22;5840;46.894;15.542;2022-10-16T12:21:00;23.80;94.70
11569;DHT22;5840;46.894;15.542;2022-10-16T12:23:32;23.80;95.30
11569;DHT22;5840;46.894;15.542;2022-10-16T12:26:01;23.90;95.50
11569;DHT22;5840;46.894;15.542;2022-10-16T12:28:29;23.70;94.10
11569;DHT22;5840;46.894;15.542;2022-10-16T12:30:59;23.80;94.40
11569;DHT22;5840;46.894;15.542;2022-10-16T12:33:28;23.80;96.50
11569;DHT22;5840;46.894;15.542;2022-10-16T12:35:56;23.80;95.00
11569;DHT22;5840;46.894;15.542;2022-10-16T12:38:27;23.80;95.20
11569;DHT22;5840;46.894;15.542;2022-10-16T12:40:58;23.80;95.30
11569;DHT22;5840;46.894;15.542;2022-10-16T12:43:45;23.60;94.30
11569;DHT22;5840;46.894;15.542;2022-10-16T12:46:26;23.30;95.10
11569;DHT22;5840;46.894;15.542;2022-10-16T12:49:20;23.40;96.60
11569;DHT22;5840;46.894;15.542;2022-10-16T12:51:48;23.40;96.00
11569;DHT22;5840;46.894;15.542;2022-10-16T12:54:17;23.50;97.50
11569;DHT22;5840;46.894;15.542;2022-10-16T12:56:53;23.50;97.00
11569;DHT22;5840;46.894;15.542;2022-10-16T12:59:32;23.50;97.50
11569;DHT22;5840;46.894;15.542;2022-10-16T13:02:19;23.40;96.90
11569;DHT22;5840;46.894;15.542;2022-10-16T13:05:16;23.30;97.20
11569;DHT22;5840;46.894;15.542;2022-10-16T13:07:56;23.20;97.40
11569;DHT22;5840;46.894;15.542;2022-10-16T13:10:32;23.00;96.90
11569;DHT22;5840;46.894;15.542;2022-10-16T13:13:30;22.90;97.40
11569;DHT22;5840;46.894;15.542;2022-10-16T13:16:14;22.90;98.30
11569;DHT22;5840;46.894;15.542;2022-10-16T13:18:49;22.80;97.40
11569;DHT22;5840;46.894;15.542;2022-10-16T13:21:33;22.80;98.70
11569;DHT22;5840;46.894;15.542;2022-10-16T13:24:07;22.70;98.50
11569;DHT22;5840;46.894;15.542;2022-10-16T13:26:42;22.70;98.90
11569;DHT22;5840;46.894;15.542;2022-10-16T13:29:11;22.70;99.40
11569;DHT22;5840;46.894;15.542;2022-10-16T13:31:40;22.60;99.40
11569;DHT22;5840;46.894;15.542;2022-10-16T13:34:14;22.60;99.80
11569;DHT22;5840;46.894;15.542;2022-10-16T13:36:46;22.50;98.30
11569;DHT22;5840;46.894;15.542;2022-10-16T13:39:21;22.40;98.50
11569;DHT22;5840;46.894;15.542;2022-10-16T13:42:00;22.50;99.90
11569;DHT22;5840;46.894;15.542;2022-10-16T13:44:28;22.50;98.80
11569;DHT22;5840;46.894;15.542;2022-10-16T13:47:02;22.80;97.70
11569;DHT22;5840;46.894;15.542;2022-10-16T13:49:29;23.20;98.30
11569;DHT22;5840;46.894;15.542;2022-10-16T13:51:57;23.00;98.00
11569;DHT22;5840;46.894;15.542;2022-10-16T13:54:25;22.90;98.60
11569;DHT22;5840;46.894;15.542;2022-10-16T13:56:52;22.70;98.90
11569;DHT22;5840;46.894;15.542;2022-10-16T13:59:24;22.50;98.90
11569;DHT22;5840;46.894;15.542;2022-10-16T14:01:53;22.40;99.20
11569;DHT22;5840;46.894;15.542;2022-10-16T14:04:23;22.30;99.70
11569;DHT22;5840;46.894;15.542;2022-10-16T14:06:51;22.20;98.90
11569;DHT22;5840;46.894;15.542;2022-10-16T14:09:23;22.10;99.20
11569;DHT22;5840;46.894;15.542;2022-10-16T14:11:53;22.10;99.80
11569;DHT22;5840;46.894;15.542;2022-10-16T14:14:22;22.00;99.50
11569;DHT22;5840;46.894;15.542;2022-10-16T14:16:50;21.90;99.90
11569;DHT22;5840;46.894;15.542;2022-10-16T14:19:20;21.80;99.30
11569;DHT22;5840;46.894;15.542;2022-10-16T14:21:50;21.70;99.30
11569;DHT22;5840;46.894;15.542;2022-10-16T14:24:26;21.60;99.90
11569;DHT22;5840;46.894;15.542;2022-10-16T14:26:54;21.60;99.80
11569;DHT22;5840;46.894;15.542;2022-10-16T14:29:22;21.60;99.90
11569;DHT22;5840;46.894;15.542;2022-10-16T14:31:57;21.50;99.90
11569;DHT22;5840;46.894;15.542;2022-10-16T14:34:30;21.40;99.90
11569;DHT22;5840;46.894;15.542;2022-10-16T14:37:01;21.40;99.90
11569;DHT22;5840;46.894;15.542;2022-10-16T14:39:33;21.30;99.90
11569;DHT22;5840;46.894;15.542;2022-10-16T14:42:00;21.20;99.90
11569;DHT22;5840;46.894;15.542;2022-10-16T14:44:29;21.10;99.90
11569;DHT22;5840;46.894;15.542;2022-10-16T14:46:57;21.10;99.90
11569;DHT22;5840;46.894;15.542;2022-10-16T14:49:25;21.00;99.90
11569;DHT22;5840;46.894;15.542;2022-10-16T14:51:53;21.00;99.90
11569;DHT22;5840;46.894;15.542;2022-10-16T14:54:22;20.90;99.90
11569;DHT22;5840;46.894;15.542;2022-10-16T14:56:51;20.80;99.90
11569;DHT22;5840;46.894;15.542;2022-10-16T14:59:22;20.80;99.90
11569;DHT22;5840;46.894;15.542;2022-10-16T15:01:51;20.80;99.90
11569;DHT22;5840;46.894;15.542;2022-10-16T15:04:18;20.70;99.90
11569;DHT22;5840;46.894;15.542;2022-10-16T15:06:45;20.70;99.90
11569;DHT22;5840;46.894;15.542;2022-10-16T15:09:12;20.60;99.90
11569;DHT22;5840;46.894;15.542;2022-10-16T15:11:41;20.60;99.90
11569;DHT22;5840;46.894;15.542;2022-10-16T15:14:11;20.60;99.90
11569;DHT22;5840;46.894;15.542;2022-10-16T15:16:40;20.50;99.90
11569;DHT22;5840;46.894;15.542;2022-10-16T15:19:09;20.40;99.90
11569;DHT22;5840;46.894;15.542;2022-10-16T15:21:36;20.30;99.90
11569;DHT22;5840;46.894;15.542;2022-10-16T15:24:05;20.30;99.90
11569;DHT22;5840;46.894;15.542;2022-10-16T15:26:35;20.20;99.90
11569;DHT22;5840;46.894;15.542;2022-10-16T15:29:03;20.10;99.90
11569;DHT22;5840;46.894;15.542;2022-10-16T15:31:31;20.10;99.90
11569;DHT22;5840;46.894;15.542;2022-10-16T15:34:01;20.00;99.90
11569;DHT22;5840;46.894;15.542;2022-10-16T15:36:31;19.90;99.90
11569;DHT22;5840;46.894;15.542;2022-10-16T15:39:02;19.80;99.90
11569;DHT22;5840;46.894;15.542;2022-10-16T15:41:30;19.80;99.90
11569;DHT22;5840;46.894;15.542;2022-10-16T15:43:57;19.70;99.90
11569;DHT22;5840;46.894;15.542;2022-10-16T15:46:25;19.70;99.90
11569;DHT22;5840;46.894;15.542;2022-10-16T15:48:57;19.60;99.90